Gallup Municipal Airport Gallup US
ICAO: KGUP
IATA: GUP
Category: Medium
Scheduled Services: No

Elevation: 6472 ft
TransAlt. 18000 ft.

Airport Communications:
ASOS:118.375
ALBUQUERQUE RDO:122.6
CTAF/UNICOM:122.95

KGUP Zoom In..

If Map Doesn't Load, Click Here

Runways:

(A) RW 06 length 7316 ft width 100 ft
LOC 111.70 / hdg 62

(B) RW 24 length 7316 ft width 100 ft
LOC 111.70 / hdg 242

Location; KGUP
Day. 21 / Time. 15.53 Zulu
* Altimeter: 30.34
* Temperature: 14° c. 57.2°f.
* Wind from: 000° Speed 00 kn.
Dewpoint: 04° c.
Visibility: 10 Statute Miles.
Clouds: Clear (automated report).

KGUP 211553Z AUTO 00000KT 10SM CLR 14/04 A3034 RMK AO2 SLP179 T01390044


Wind - Calm.

 
 
jpsmedia.com for Web Design worldairports.se 2018   terms of use